Time;durP1;ratioP1;P1;durP2;ratioP2;P2;SDS_P1;SDS_P2;PMS_P1;PMS_P2;Temp;Humidity;BMP_temperature;BMP_pressure;BME280_temperature;BME280_humidity;BME280_pressure;Samples;Min_cycle;Max_cycle;Signal;HPM_P1;HPM_P2
2022/01/20 00:01:39;;;;;;;21.85;5.97;;;4.10;99.90;;;;;;5107282;28;20043;-79
2022/01/20 00:04:12;;;;;;;17.98;5.63;;;4.10;99.90;;;;;;5106191;28;20301;-79
2022/01/20 00:09:41;;;;;;;17.27;3.95;;;4.50;99.90;;;;;;5107180;28;20050;-79
2022/01/20 00:23:16;;;;;;;11.40;2.03;;;4.70;99.90;;;;;;5095915;28;20047;-79
2022/01/20 00:25:55;;;;;;;3.33;1.27;;;4.40;99.90;;;;;;5105882;28;20048;-80
2022/01/20 00:28:29;;;;;;;3.65;1.45;;;3.90;99.90;;;;;;5097902;28;20044;-80
2022/01/20 00:31:04;;;;;;;7.63;1.50;;;3.40;99.90;;;;;;5109394;28;20457;-80
2022/01/20 00:33:36;;;;;;;8.82;1.65;;;3.20;99.90;;;;;;5111036;28;20050;-80
2022/01/20 00:38:46;;;;;;;2.13;1.13;;;2.90;99.90;;;;;;5097934;28;20044;-79
2022/01/20 00:41:15;;;;;;;10.32;1.58;;;2.90;99.90;;;;;;5102206;28;20039;-80
2022/01/20 00:43:41;;;;;;;5.88;1.20;;;2.90;99.90;;;;;;5125469;27;20083;-79
2022/01/20 00:46:08;;;;;;;8.55;1.65;;;3.10;99.90;;;;;;5148627;27;20039;-80
2022/01/20 00:48:34;;;;;;;4.65;1.52;;;3.10;99.90;;;;;;5145445;27;20401;-80
2022/01/20 00:51:01;;;;;;;14.63;2.40;;;3.10;99.90;;;;;;5120649;27;20402;-80
2022/01/20 00:53:27;;;;;;;9.52;2.47;;;3.20;99.90;;;;;;5152380;27;20509;-80
2022/01/20 00:55:54;;;;;;;3.72;1.88;;;3.10;99.90;;;;;;5129461;27;20466;-80
2022/01/20 00:58:20;;;;;;;8.02;2.33;;;3.10;99.90;;;;;;5123997;27;20047;-80
2022/01/20 01:00:47;;;;;;;9.98;2.72;;;3.10;99.90;;;;;;5120454;27;20047;-80
2022/01/20 01:03:13;;;;;;;8.82;1.75;;;3.10;99.90;;;;;;5138845;27;20053;-80
2022/01/20 01:05:52;;;;;;;9.25;2.58;;;3.10;99.90;;;;;;5129472;27;20058;-80
2022/01/20 01:08:18;;;;;;;9.75;2.17;;;3.10;99.90;;;;;;5124139;27;20048;-80
2022/01/20 01:10:45;;;;;;;7.93;2.33;;;3.10;99.90;;;;;;5119744;27;20043;-80
2022/01/20 01:13:15;;;;;;;8.40;1.60;;;3.10;99.90;;;;;;5124261;27;20134;-81
2022/01/20 01:15:45;;;;;;;13.30;2.40;;;3.20;99.90;;;;;;5145007;27;20047;-81
2022/01/20 01:23:48;;;;;;;5.25;1.77;;;3.50;99.90;;;;;;5087945;27;20047;-80
2022/01/20 01:26:16;;;;;;;4.50;1.48;;;3.50;99.90;;;;;;5153509;27;20035;-80
2022/01/20 01:28:42;;;;;;;5.25;1.90;;;3.40;99.90;;;;;;5156304;27;20050;-80
2022/01/20 01:31:30;;;;;;;11.35;1.42;;;3.40;99.90;;;;;;5123617;27;20047;-80
2022/01/20 01:33:59;;;;;;;6.18;2.22;;;3.50;99.90;;;;;;5131916;27;20074;-80
2022/01/20 01:36:27;;;;;;;8.10;1.75;;;3.50;99.90;;;;;;5127808;27;20162;-79
2022/01/20 01:38:54;;;;;;;12.43;2.55;;;3.70;99.90;;;;;;5148532;27;20047;-80
2022/01/20 01:41:28;;;;;;;10.52;1.70;;;3.70;99.90;;;;;;5127931;27;20051;-80
2022/01/20 01:43:55;;;;;;;11.95;2.35;;;3.60;99.90;;;;;;5123029;27;20067;-80
2022/01/20 01:46:21;;;;;;;11.68;1.85;;;3.50;99.90;;;;;;5134072;27;20126;-80
2022/01/20 01:48:48;;;;;;;8.13;2.60;;;3.40;99.90;;;;;;5127007;27;20051;-80
2022/01/20 01:51:15;;;;;;;8.93;1.98;;;3.40;99.90;;;;;;5131292;27;20039;-80
2022/01/20 01:53:42;;;;;;;5.22;2.85;;;3.30;99.90;;;;;;5131009;27;20053;-79
2022/01/20 01:56:08;;;;;;;14.23;2.53;;;3.30;99.90;;;;;;5134173;27;20046;-79
2022/01/20 01:58:35;;;;;;;9.55;1.75;;;3.30;99.90;;;;;;5132319;27;20061;-80
2022/01/20 02:01:01;;;;;;;11.13;2.97;;;3.30;99.90;;;;;;5127278;27;20051;-80
2022/01/20 02:03:29;;;;;;;9.55;2.22;;;3.30;99.90;;;;;;5151414;27;20047;-80
2022/01/20 02:06:24;;;;;;;9.32;1.75;;;3.40;99.90;;;;;;5123445;27;20103;-80
2022/01/20 02:08:56;;;;;;;7.40;1.63;;;3.60;99.90;;;;;;5126598;27;20047;-80
2022/01/20 02:19:35;;;;;;;20.95;3.13;;;4.40;99.90;;;;;;5134513;27;20062;-80
2022/01/20 02:22:02;;;;;;;8.55;1.50;;;4.30;99.90;;;;;;5127225;27;20059;-80
2022/01/20 02:24:29;;;;;;;7.05;2.35;;;4.30;99.90;;;;;;5132918;27;20049;-80
2022/01/20 02:26:55;;;;;;;9.18;2.25;;;4.20;99.90;;;;;;5128328;27;20053;-81
2022/01/20 02:29:22;;;;;;;10.15;2.17;;;4.20;99.90;;;;;;5128788;27;20055;-79
2022/01/20 02:31:49;;;;;;;24.63;2.50;;;4.40;99.90;;;;;;5127543;27;20039;-79
2022/01/20 02:34:16;;;;;;;10.20;2.42;;;4.30;99.90;;;;;;5132163;27;20767;-79
2022/01/20 02:36:46;;;;;;;7.43;2.45;;;4.30;99.90;;;;;;5130686;27;20493;-80
2022/01/20 02:39:26;;;;;;;24.73;2.95;;;4.20;99.90;;;;;;5154538;27;20061;-80
2022/01/20 02:44:52;;;;;;;7.63;2.50;;;4.00;99.90;;;;;;5126664;27;19919;-79
2022/01/20 02:47:19;;;;;;;15.40;2.65;;;4.00;99.90;;;;;;5119291;27;20054;-79
2022/01/20 02:49:46;;;;;;;10.27;3.60;;;4.00;99.90;;;;;;5120813;27;20047;-79
2022/01/20 02:52:12;;;;;;;12.98;2.92;;;4.30;99.90;;;;;;5124451;27;20055;-80
2022/01/20 02:54:39;;;;;;;12.15;4.05;;;4.30;99.90;;;;;;5135624;27;20052;-79
2022/01/20 02:57:05;;;;;;;18.40;3.95;;;4.30;99.90;;;;;;5126638;27;20046;-79
2022/01/20 02:59:32;;;;;;;16.90;2.72;;;4.00;99.90;;;;;;5129649;27;20497;-79
2022/01/20 03:01:58;;;;;;;20.30;4.25;;;3.90;99.90;;;;;;5127784;27;20046;-79
2022/01/20 03:04:26;;;;;;;20.13;4.55;;;3.70;99.90;;;;;;5140985;27;20150;-78
2022/01/20 03:06:53;;;;;;;10.68;4.82;;;3.50;99.90;;;;;;5133555;27;20409;-79
2022/01/20 03:09:19;;;;;;;25.35;5.20;;;3.40;99.90;;;;;;5151813;27;20054;-80
2022/01/20 03:11:46;;;;;;;13.50;4.20;;;3.50;99.90;;;;;;5146604;27;20043;-80
2022/01/20 03:14:14;;;;;;;14.45;4.95;;;3.70;99.90;;;;;;5119846;27;20051;-79
2022/01/20 03:16:40;;;;;;;13.50;3.78;;;3.80;99.90;;;;;;5128077;27;20749;-79
2022/01/20 03:19:07;;;;;;;16.92;5.35;;;3.90;99.90;;;;;;5131322;27;20054;-80
2022/01/20 03:21:33;;;;;;;19.35;5.80;;;3.70;99.90;;;;;;5151916;27;20053;-80
2022/01/20 03:24:00;;;;;;;21.50;6.03;;;3.70;99.90;;;;;;5145895;27;20481;-80
2022/01/20 03:26:26;;;;;;;24.02;4.95;;;3.70;99.90;;;;;;5133246;27;20051;-80
2022/01/20 03:28:53;;;;;;;15.35;4.07;;;3.70;99.90;;;;;;5135218;27;20050;-80
2022/01/20 03:31:19;;;;;;;17.60;3.47;;;3.70;99.90;;;;;;5131726;27;20047;-79
2022/01/20 03:33:46;;;;;;;9.05;2.75;;;3.90;99.90;;;;;;5130189;27;20051;-79
2022/01/20 03:36:12;;;;;;;22.23;3.92;;;4.00;99.90;;;;;;5140383;27;20042;-79
2022/01/20 03:38:39;;;;;;;5.47;2.55;;;4.10;99.90;;;;;;5127731;27;20046;-79
2022/01/20 03:41:05;;;;;;;9.95;3.03;;;4.10;99.90;;;;;;5134164;27;20135;-79
2022/01/20 03:43:32;;;;;;;21.27;4.80;;;4.30;99.90;;;;;;5116005;27;20494;-79
2022/01/20 03:46:00;;;;;;;21.65;3.28;;;4.00;99.90;;;;;;5134096;27;20054;-80
2022/01/20 03:48:29;;;;;;;19.05;5.60;;;4.00;99.90;;;;;;5126855;27;20383;-79
2022/01/20 03:51:02;;;;;;;14.45;3.03;;;3.90;99.90;;;;;;5133464;27;20062;-79
2022/01/20 03:53:29;;;;;;;26.10;4.00;;;4.20;99.90;;;;;;5123709;27;20141;-79
2022/01/20 03:55:55;;;;;;;17.52;4.57;;;4.10;99.90;;;;;;5120668;27;20053;-79
2022/01/20 03:58:22;;;;;;;10.55;3.40;;;4.20;99.90;;;;;;5125794;27;20082;-79
2022/01/20 04:00:48;;;;;;;17.13;4.15;;;4.40;99.90;;;;;;5139409;27;20055;-78
2022/01/20 04:03:15;;;;;;;10.55;2.60;;;4.10;99.90;;;;;;5117396;27;20043;-79
2022/01/20 04:05:54;;;;;;;10.35;2.58;;;4.20;99.90;;;;;;5132059;27;20057;-78
2022/01/20 04:08:20;;;;;;;20.80;3.08;;;4.30;99.90;;;;;;5123073;27;20042;-79
2022/01/20 04:10:47;;;;;;;14.32;3.65;;;4.20;99.90;;;;;;5132307;27;20042;-79
2022/01/20 04:13:14;;;;;;;13.35;2.63;;;4.10;99.90;;;;;;5125587;27;20043;-78
2022/01/20 04:15:41;;;;;;;18.30;3.10;;;4.20;99.90;;;;;;5133862;27;20039;-79
2022/01/20 04:18:07;;;;;;;11.25;3.10;;;4.20;99.90;;;;;;5115400;27;20043;-78
2022/01/20 04:20:34;;;;;;;12.70;3.25;;;4.30;99.90;;;;;;5116944;27;20433;-78
2022/01/20 04:23:00;;;;;;;15.35;3.90;;;4.30;99.90;;;;;;5135229;27;20094;-78
2022/01/20 04:25:27;;;;;;;17.48;3.05;;;4.40;99.90;;;;;;5120867;27;20049;-79
2022/01/20 04:27:53;;;;;;;8.93;3.92;;;4.30;99.90;;;;;;5131732;27;20069;-78
2022/01/20 04:30:20;;;;;;;14.32;3.35;;;4.30;99.90;;;;;;5140177;27;20509;-78
2022/01/20 04:32:46;;;;;;;22.75;5.00;;;4.30;99.90;;;;;;5131279;27;20487;-78
2022/01/20 04:35:16;;;;;;;21.90;5.22;;;3.80;99.90;;;;;;5128561;27;20501;-78
2022/01/20 04:37:43;;;;;;;9.40;3.67;;;4.00;99.90;;;;;;5153034;27;20057;-77
2022/01/20 04:40:09;;;;;;;7.13;3.38;;;3.90;99.90;;;;;;5141500;27;20050;-78
2022/01/20 04:42:38;;;;;;;16.60;3.20;;;3.90;99.90;;;;;;5147917;27;20421;-78
2022/01/20 04:45:08;;;;;;;17.30;4.68;;;3.80;99.90;;;;;;5129075;27;20042;-78
2022/01/20 04:47:43;;;;;;;10.07;3.47;;;4.10;99.90;;;;;;5149002;27;20104;-77
2022/01/20 04:58:22;;;;;;;8.75;2.95;;;3.70;99.90;;;;;;5131951;27;20073;-78
2022/01/20 05:00:49;;;;;;;5.70;2.40;;;3.60;99.90;;;;;;5133420;27;20051;-78
2022/01/20 05:03:15;;;;;;;4.82;2.60;;;3.30;99.90;;;;;;5125718;27;20051;-78
2022/01/20 05:05:42;;;;;;;16.83;3.00;;;3.00;99.90;;;;;;5114528;27;20129;-78
2022/01/20 05:08:09;;;;;;;11.82;2.90;;;3.10;99.90;;;;;;5117206;28;20057;-78
2022/01/20 05:10:35;;;;;;;10.55;3.92;;;3.10;99.90;;;;;;5118100;27;20046;-78
2022/01/20 05:13:21;;;;;;;6.65;1.45;;;3.20;99.90;;;;;;5122404;28;20235;-78
2022/01/20 05:15:48;;;;;;;11.25;3.10;;;3.30;99.90;;;;;;5120358;27;20125;-77
2022/01/20 05:18:15;;;;;;;10.57;3.58;;;3.00;99.90;;;;;;5131409;27;20051;-78
2022/01/20 05:20:41;;;;;;;16.00;3.00;;;2.50;99.90;;;;;;5117358;28;20043;-78
2022/01/20 05:23:08;;;;;;;11.55;4.20;;;2.20;99.90;;;;;;5114447;28;20054;-78
2022/01/20 05:25:34;;;;;;;19.40;3.83;;;2.50;99.90;;;;;;5127852;27;20039;-78
2022/01/20 05:28:01;;;;;;;17.80;4.78;;;2.50;99.90;;;;;;5145096;27;20055;-78
2022/01/20 05:30:27;;;;;;;23.20;4.22;;;2.20;99.90;;;;;;5121223;27;20116;-78
2022/01/20 05:32:54;;;;;;;16.77;4.22;;;2.10;99.90;;;;;;5124119;28;20047;-78
2022/01/20 05:35:20;;;;;;;23.50;3.88;;;2.00;99.90;;;;;;5114579;27;20043;-77
2022/01/20 05:37:47;;;;;;;16.42;3.88;;;2.10;99.90;;;;;;5129102;27;20047;-77
2022/01/20 05:40:13;;;;;;;11.77;3.55;;;2.00;99.90;;;;;;5129389;27;20047;-78
2022/01/20 05:42:40;;;;;;;20.05;4.43;;;2.20;99.90;;;;;;5114293;27;20055;-79
2022/01/20 05:45:07;;;;;;;10.45;2.63;;;2.10;99.90;;;;;;5114506;28;20046;-78
2022/01/20 05:47:35;;;;;;;9.70;2.40;;;1.60;99.90;;;;;;5129447;27;20489;-79
2022/01/20 05:50:02;;;;;;;10.52;2.45;;;1.50;99.90;;;;;;5124190;28;20047;-79
2022/01/20 05:52:28;;;;;;;20.88;3.22;;;1.40;99.90;;;;;;5129639;27;20043;-78
2022/01/20 05:54:55;;;;;;;16.60;2.58;;;1.30;99.90;;;;;;5121490;28;20051;-79
2022/01/20 05:57:21;;;;;;;7.03;2.58;;;1.20;99.90;;;;;;5124598;28;20053;-79
2022/01/20 05:59:48;;;;;;;12.65;3.08;;;1.20;99.90;;;;;;5144830;27;20054;-79
2022/01/20 06:02:29;;;;;;;13.82;2.83;;;1.30;99.90;;;;;;5132953;27;20047;-78
2022/01/20 06:04:55;;;;;;;11.63;2.47;;;1.40;99.90;;;;;;5115361;28;20082;-80
2022/01/20 06:07:22;;;;;;;8.18;2.75;;;1.50;99.90;;;;;;5150707;27;20046;-78
2022/01/20 06:09:48;;;;;;;13.90;3.38;;;1.60;99.90;;;;;;5122180;28;20047;-79
2022/01/20 06:12:15;;;;;;;20.35;2.92;;;1.60;99.90;;;;;;5152802;27;20049;-80
2022/01/20 06:14:41;;;;;;;19.30;3.05;;;1.60;99.90;;;;;;5145774;27;20047;-80
2022/01/20 06:17:08;;;;;;;5.10;1.70;;;1.60;99.90;;;;;;5133011;27;20043;-80
2022/01/20 06:19:35;;;;;;;11.50;2.75;;;1.50;99.90;;;;;;5152938;27;20043;-79
2022/01/20 06:22:01;;;;;;;15.48;3.67;;;1.60;99.90;;;;;;5134057;27;20057;-79
2022/01/20 06:24:28;;;;;;;12.18;3.63;;;1.70;99.90;;;;;;5135297;27;20047;-79
2022/01/20 06:26:54;;;;;;;17.90;4.18;;;1.70;99.90;;;;;;5135451;27;20401;-79
2022/01/20 06:29:21;;;;;;;15.93;4.45;;;1.80;99.90;;;;;;5135674;27;20054;-80
2022/01/20 06:31:48;;;;;;;15.02;4.07;;;2.10;99.90;;;;;;5133667;27;20130;-79
2022/01/20 06:34:14;;;;;;;12.90;4.70;;;2.50;99.90;;;;;;5153206;27;20053;-80
2022/01/20 06:36:41;;;;;;;16.67;4.85;;;2.70;99.90;;;;;;5132987;27;20043;-79
2022/01/20 06:39:07;;;;;;;14.32;3.35;;;2.80;99.90;;;;;;5134020;27;20050;-79
2022/01/20 06:41:37;;;;;;;10.32;4.13;;;3.00;99.90;;;;;;5133689;27;20432;-79
2022/01/20 06:44:04;;;;;;;21.40;5.40;;;3.10;99.90;;;;;;5135552;27;20431;-80
2022/01/20 06:46:30;;;;;;;11.23;3.70;;;3.10;99.90;;;;;;5134932;27;20488;-79
2022/01/20 06:48:57;;;;;;;21.05;5.05;;;3.00;99.90;;;;;;5130398;27;20074;-79
2022/01/20 06:51:24;;;;;;;6.80;2.50;;;3.00;99.90;;;;;;5134937;27;20046;-79
2022/01/20 06:53:50;;;;;;;18.95;4.95;;;3.20;99.90;;;;;;5133004;27;20047;-80
2022/01/20 06:56:17;;;;;;;22.88;5.28;;;2.90;99.90;;;;;;5150370;27;20045;-80
2022/01/20 06:58:43;;;;;;;20.88;4.90;;;2.70;99.90;;;;;;5132504;27;20519;-80
2022/01/20 07:01:10;;;;;;;14.10;3.50;;;2.70;99.90;;;;;;5135492;27;20046;-79
2022/01/20 07:03:36;;;;;;;11.85;3.95;;;2.60;99.90;;;;;;5132267;27;20062;-79
2022/01/20 07:06:03;;;;;;;16.27;4.30;;;2.70;99.90;;;;;;5152489;27;20080;-80
2022/01/20 07:08:29;;;;;;;14.00;3.67;;;2.80;99.90;;;;;;5131725;27;20038;-80
2022/01/20 07:10:56;;;;;;;25.70;4.32;;;2.60;99.90;;;;;;5132589;27;20061;-80
2022/01/20 07:13:22;;;;;;;15.27;2.72;;;2.30;99.90;;;;;;5134446;27;20038;-80
2022/01/20 07:15:49;;;;;;;16.23;2.30;;;1.80;99.90;;;;;;5134704;27;20417;-79
2022/01/20 07:18:15;;;;;;;8.27;2.58;;;1.60;99.90;;;;;;5134315;27;20039;-80
2022/01/20 07:20:42;;;;;;;8.10;2.33;;;1.60;99.90;;;;;;5133733;27;20047;-80
2022/01/20 07:23:09;;;;;;;7.85;1.83;;;1.80;99.90;;;;;;5134428;27;20049;-80
2022/01/20 07:25:35;;;;;;;11.65;2.70;;;1.80;99.90;;;;;;5134469;27;20066;-79
2022/01/20 07:28:02;;;;;;;4.25;2.25;;;2.10;99.90;;;;;;5132588;27;20043;-79
2022/01/20 07:30:28;;;;;;;17.20;3.10;;;2.10;99.90;;;;;;5134364;27;20050;-80
2022/01/20 07:32:55;;;;;;;11.63;2.90;;;2.20;99.90;;;;;;5134781;27;20046;-79
2022/01/20 07:35:21;;;;;;;10.27;2.63;;;2.20;99.90;;;;;;5150576;27;20047;-79
2022/01/20 07:37:48;;;;;;;19.45;4.35;;;2.30;99.90;;;;;;5135334;27;20035;-80
2022/01/20 07:40:14;;;;;;;12.48;3.33;;;2.30;99.90;;;;;;5150960;27;20050;-80
2022/01/20 07:42:41;;;;;;;19.67;3.63;;;2.10;99.90;;;;;;5131039;27;20043;-79
2022/01/20 07:45:07;;;;;;;10.75;3.55;;;2.30;99.90;;;;;;5131620;27;20039;-78
2022/01/20 07:47:35;;;;;;;11.00;4.03;;;2.40;99.90;;;;;;5149244;27;20494;-79
2022/01/20 07:50:02;;;;;;;10.68;2.95;;;2.40;99.90;;;;;;5134584;27;20042;-79
2022/01/20 07:52:28;;;;;;;8.35;2.72;;;2.50;99.90;;;;;;5151590;27;20046;-79
2022/01/20 07:54:55;;;;;;;9.50;3.67;;;2.80;99.90;;;;;;5152858;27;20045;-79
2022/01/20 07:57:21;;;;;;;23.30;4.28;;;2.50;99.90;;;;;;5130440;27;20047;-80
2022/01/20 07:59:48;;;;;;;17.88;4.30;;;2.70;99.90;;;;;;5151328;27;20053;-79
2022/01/20 08:02:16;;;;;;;19.30;4.28;;;2.60;99.90;;;;;;5131210;27;20042;-80
2022/01/20 08:04:42;;;;;;;25.05;5.88;;;2.40;99.90;;;;;;5150139;27;20051;-80
2022/01/20 08:07:09;;;;;;;21.17;4.70;;;2.40;99.90;;;;;;5130963;27;20046;-79
2022/01/20 08:09:36;;;;;;;14.68;4.00;;;2.50;99.90;;;;;;5131351;27;20043;-79
2022/01/20 08:12:03;;;;;;;26.67;5.18;;;2.40;99.90;;;;;;5134135;27;20385;-79
2022/01/20 08:14:29;;;;;;;29.85;4.88;;;2.40;99.90;;;;;;5133398;27;20042;-80
2022/01/20 08:16:56;;;;;;;21.25;4.20;;;2.50;99.90;;;;;;5133212;27;20042;-80
2022/01/20 08:19:22;;;;;;;12.80;3.75;;;2.60;99.90;;;;;;5134144;27;20054;-80
2022/01/20 08:21:49;;;;;;;14.48;3.60;;;2.70;99.90;;;;;;5122114;27;20079;-80
2022/01/20 08:24:15;;;;;;;16.27;3.53;;;2.70;99.90;;;;;;5128913;27;20050;-81
2022/01/20 08:26:42;;;;;;;18.30;4.32;;;2.80;99.90;;;;;;5133889;27;20046;-80
2022/01/20 08:29:09;;;;;;;15.35;2.72;;;2.90;99.90;;;;;;5129432;27;20477;-80
2022/01/20 08:31:35;;;;;;;21.67;5.30;;;3.00;99.90;;;;;;5131241;27;20034;-78
2022/01/20 08:34:02;;;;;;;20.08;3.70;;;3.00;99.90;;;;;;5130154;27;20043;-79
2022/01/20 08:36:28;;;;;;;9.45;3.47;;;3.10;99.90;;;;;;5150195;27;20042;-78
2022/01/20 08:38:55;;;;;;;19.77;4.13;;;3.10;99.90;;;;;;5133242;27;20062;-78
2022/01/20 08:41:21;;;;;;;11.65;3.85;;;3.00;99.90;;;;;;5149902;27;20050;-79
2022/01/20 08:43:48;;;;;;;19.67;4.25;;;3.00;99.90;;;;;;5133628;27;20054;-79
2022/01/20 08:46:19;;;;;;;22.75;3.80;;;3.00;99.90;;;;;;5130381;27;20565;-79
2022/01/20 08:48:45;;;;;;;16.20;4.45;;;3.10;99.90;;;;;;5131991;27;20039;-79
2022/01/20 08:51:12;;;;;;;19.27;3.80;;;3.10;99.90;;;;;;5134018;27;20051;-80
2022/01/20 08:53:38;;;;;;;11.32;2.78;;;3.40;99.90;;;;;;5131957;27;20051;-80
2022/01/20 08:56:05;;;;;;;13.15;4.60;;;3.50;99.90;;;;;;5132964;27;20401;-80
2022/01/20 08:58:32;;;;;;;21.92;4.28;;;3.50;99.90;;;;;;5129438;27;20047;-80
2022/01/20 09:01:00;;;;;;;12.77;3.03;;;3.50;99.90;;;;;;5132782;27;20054;-79
2022/01/20 09:03:26;;;;;;;23.60;4.47;;;3.80;99.90;;;;;;5128913;27;20449;-80
2022/01/20 09:05:53;;;;;;;20.13;3.92;;;3.50;99.90;;;;;;5132639;27;20466;-79
2022/01/20 09:08:19;;;;;;;9.68;3.05;;;3.50;99.90;;;;;;5132138;27;20516;-80
2022/01/20 09:10:53;;;;;;;11.05;3.55;;;3.60;99.90;;;;;;5130534;27;20489;-79
2022/01/20 09:16:04;;;;;;;16.42;2.75;;;3.30;99.90;;;;;;5129454;27;20038;-79
2022/01/20 09:18:30;;;;;;;11.98;3.55;;;3.30;99.90;;;;;;5130431;27;20458;-80
2022/01/20 09:20:57;;;;;;;9.02;2.75;;;3.20;99.90;;;;;;5133395;27;20042;-80
2022/01/20 09:23:23;;;;;;;9.77;2.45;;;3.40;99.90;;;;;;5118131;27;20115;-81
2022/01/20 09:25:50;;;;;;;13.18;3.08;;;3.30;99.90;;;;;;5129940;27;20046;-82
2022/01/20 09:28:17;;;;;;;8.63;2.88;;;3.40;99.90;;;;;;5120159;27;20043;-81
2022/01/20 09:30:45;;;;;;;16.77;3.45;;;3.40;99.90;;;;;;5118133;28;20095;-80
2022/01/20 09:33:15;;;;;;;12.18;3.00;;;3.50;99.90;;;;;;5137312;27;20378;-81
2022/01/20 09:35:41;;;;;;;14.35;2.80;;;3.50;99.90;;;;;;5127448;27;20470;-80
2022/01/20 09:38:08;;;;;;;14.57;3.10;;;3.80;99.90;;;;;;5123783;27;20043;-83
2022/01/20 09:40:34;;;;;;;9.55;2.67;;;3.90;99.90;;;;;;5126124;28;20055;-84
2022/01/20 09:43:01;;;;;;;16.55;3.95;;;3.80;99.90;;;;;;5115066;27;20051;-79
2022/01/20 09:45:27;;;;;;;9.88;3.45;;;3.70;99.90;;;;;;5125352;27;20046;-79
2022/01/20 09:47:54;;;;;;;21.20;3.67;;;3.90;99.90;;;;;;5131709;27;20408;-80
2022/01/20 09:50:20;;;;;;;7.57;2.92;;;3.30;99.90;;;;;;5130503;27;20050;-80
2022/01/20 09:52:47;;;;;;;11.10;3.65;;;3.30;99.90;;;;;;5127068;27;20039;-81
2022/01/20 09:55:13;;;;;;;9.60;1.75;;;3.10;99.90;;;;;;5122990;27;20051;-79
2022/01/20 09:57:40;;;;;;;7.50;2.20;;;3.20;99.90;;;;;;5148437;27;20046;-81
2022/01/20 10:00:06;;;;;;;12.38;2.20;;;3.00;99.90;;;;;;5134719;27;20042;-81
2022/01/20 10:02:33;;;;;;;7.95;2.35;;;2.80;99.90;;;;;;5144964;27;20043;-80
2022/01/20 10:05:00;;;;;;;8.52;1.60;;;3.00;99.90;;;;;;5129413;27;20043;-80
2022/01/20 10:07:26;;;;;;;3.08;1.70;;;2.70;99.90;;;;;;5130827;27;20050;-80
2022/01/20 10:09:53;;;;;;;4.72;1.88;;;2.50;99.90;;;;;;5124212;27;20095;-80
2022/01/20 10:12:19;;;;;;;7.90;1.75;;;2.70;99.90;;;;;;5126860;27;20047;-80
2022/01/20 10:14:46;;;;;;;11.27;2.50;;;2.90;99.90;;;;;;5122978;27;20058;-81
2022/01/20 10:17:13;;;;;;;12.10;3.22;;;3.10;99.90;;;;;;5132442;27;20057;-78
2022/01/20 10:19:39;;;;;;;13.95;1.85;;;3.30;99.90;;;;;;5136624;27;20043;-81
2022/01/20 10:22:06;;;;;;;6.22;1.50;;;3.40;99.90;;;;;;5134899;27;20050;-81
2022/01/20 10:24:32;;;;;;;12.73;2.17;;;3.50;99.90;;;;;;5132554;27;20659;-81
2022/01/20 10:26:59;;;;;;;9.18;3.28;;;3.50;99.90;;;;;;5136267;27;20069;-81
2022/01/20 10:29:25;;;;;;;12.13;3.95;;;3.40;99.90;;;;;;5155265;27;20043;-81
2022/01/20 10:31:52;;;;;;;16.42;3.25;;;3.40;99.90;;;;;;5135503;27;20474;-81
2022/01/20 10:34:19;;;;;;;10.38;3.38;;;3.60;99.90;;;;;;5136209;27;20481;-81
2022/01/20 10:36:45;;;;;;;8.35;3.17;;;3.80;99.90;;;;;;5130855;27;20047;-81
2022/01/20 10:39:12;;;;;;;14.98;3.83;;;4.10;99.90;;;;;;5135532;27;20409;-81
2022/01/20 10:41:38;;;;;;;12.95;3.17;;;4.00;99.90;;;;;;5133209;27;20515;-81
2022/01/20 10:44:05;;;;;;;10.70;3.08;;;4.40;99.90;;;;;;5130701;27;20487;-80
2022/01/20 10:46:31;;;;;;;9.70;2.72;;;4.40;99.90;;;;;;5129706;27;20417;-79
2022/01/20 10:48:58;;;;;;;10.77;3.55;;;4.50;99.90;;;;;;5131211;27;20489;-80
2022/01/20 10:51:24;;;;;;;12.15;3.05;;;4.60;99.90;;;;;;5131024;27;20471;-80
2022/01/20 10:53:51;;;;;;;13.65;3.20;;;4.40;99.90;;;;;;5130765;27;20051;-80
2022/01/20 10:56:17;;;;;;;19.05;4.20;;;4.20;99.90;;;;;;5129885;27;20055;-81
2022/01/20 10:58:44;;;;;;;13.95;3.08;;;4.00;99.90;;;;;;5127199;27;20043;-80
2022/01/20 11:01:11;;;;;;;13.57;3.15;;;3.90;99.90;;;;;;5132315;27;20047;-80
2022/01/20 11:03:37;;;;;;;15.68;4.38;;;4.00;99.90;;;;;;5131245;27;20043;-80
2022/01/20 11:06:04;;;;;;;18.23;3.75;;;4.30;99.90;;;;;;5130350;27;20044;-80
2022/01/20 11:08:31;;;;;;;5.75;2.10;;;4.10;99.90;;;;;;5132925;27;20043;-80
2022/01/20 11:10:59;;;;;;;6.18;2.00;;;4.30;99.90;;;;;;5131538;27;20386;-80
2022/01/20 11:13:26;;;;;;;8.20;1.88;;;4.10;99.90;;;;;;5131880;27;20078;-80
2022/01/20 11:15:52;;;;;;;6.43;1.27;;;4.30;99.90;;;;;;5131532;27;20043;-80
2022/01/20 11:18:19;;;;;;;4.13;1.23;;;4.40;99.90;;;;;;5131748;27;20133;-81
2022/01/20 11:20:46;;;;;;;4.95;2.03;;;4.20;99.90;;;;;;5129189;27;20529;-81
2022/01/20 11:23:12;;;;;;;13.88;3.03;;;4.00;99.90;;;;;;5133843;27;20126;-80
2022/01/20 11:25:39;;;;;;;14.82;3.30;;;4.00;99.90;;;;;;5130135;27;20043;-81
2022/01/20 11:28:07;;;;;;;4.10;1.83;;;3.90;99.90;;;;;;5130487;27;20542;-79
2022/01/20 11:30:35;;;;;;;3.05;1.80;;;4.30;99.90;;;;;;5130531;27;20039;-80
2022/01/20 11:33:01;;;;;;;9.32;1.42;;;4.60;99.90;;;;;;5127915;27;20083;-81
2022/01/20 11:35:28;;;;;;;16.48;2.42;;;4.70;99.90;;;;;;5130483;27;20057;-80
2022/01/20 11:37:54;;;;;;;9.32;2.85;;;4.50;99.90;;;;;;5131598;27;20054;-79
2022/01/20 11:40:21;;;;;;;7.25;1.95;;;4.60;99.90;;;;;;5130999;27;20051;-80
2022/01/20 11:42:48;;;;;;;10.48;2.50;;;4.90;99.90;;;;;;5132037;27;20123;-80
2022/01/20 11:45:14;;;;;;;4.57;2.13;;;4.80;99.90;;;;;;5132348;27;20047;-80
2022/01/20 11:47:41;;;;;;;13.75;3.33;;;4.60;99.90;;;;;;5132443;27;20054;-80
2022/01/20 11:50:07;;;;;;;10.88;2.85;;;4.30;99.90;;;;;;5134300;27;20443;-80
2022/01/20 11:52:34;;;;;;;9.00;3.00;;;4.20;99.90;;;;;;5132412;27;20090;-80
2022/01/20 11:55:01;;;;;;;9.20;2.33;;;4.30;99.90;;;;;;5148892;27;20043;-81
2022/01/20 11:57:29;;;;;;;8.43;1.67;;;4.40;99.90;;;;;;5119571;27;20040;-80
2022/01/20 11:59:57;;;;;;;6.25;1.95;;;4.20;99.90;;;;;;5141595;27;20047;-80
2022/01/20 12:02:24;;;;;;;4.43;1.25;;;4.20;99.90;;;;;;5124932;27;20058;-84
2022/01/20 12:04:51;;;;;;;9.45;2.97;;;4.60;99.90;;;;;;5130279;27;20034;-87
2022/01/20 12:07:18;;;;;;;9.05;2.17;;;4.50;99.90;;;;;;5135201;27;20053;-80
2022/01/20 12:09:44;;;;;;;8.13;1.70;;;4.40;99.90;;;;;;5128229;27;20043;-82
2022/01/20 12:12:11;;;;;;;7.90;2.35;;;4.70;99.90;;;;;;5134311;27;20050;-83
2022/01/20 12:14:38;;;;;;;13.95;2.58;;;4.60;99.90;;;;;;5128213;27;20043;-82
2022/01/20 12:17:05;;;;;;;11.27;2.78;;;4.70;99.90;;;;;;5129263;27;20050;-82
2022/01/20 12:19:31;;;;;;;15.13;2.70;;;4.70;99.90;;;;;;5122052;27;20053;-83
2022/01/20 12:21:58;;;;;;;11.50;3.17;;;5.10;99.90;;;;;;5127777;27;20122;-85
2022/01/20 12:24:24;;;;;;;4.15;1.88;;;5.20;99.90;;;;;;5132280;27;20123;-87
2022/01/20 12:26:51;;;;;;;16.10;3.97;;;5.30;99.90;;;;;;5132952;27;20047;-86
2022/01/20 12:29:18;;;;;;;13.82;3.17;;;5.10;99.90;;;;;;5125653;27;20498;-86
2022/01/20 12:31:44;;;;;;;21.42;4.80;;;4.70;99.90;;;;;;5145347;27;20053;-86
2022/01/20 12:34:11;;;;;;;19.33;4.10;;;4.80;99.90;;;;;;5124469;27;20496;-86
2022/01/20 12:36:39;;;;;;;8.18;2.70;;;4.50;99.90;;;;;;5130596;27;20047;-81
2022/01/20 12:39:06;;;;;;;9.40;3.15;;;4.30;99.90;;;;;;5126659;27;20047;-83
2022/01/20 12:41:32;;;;;;;11.82;2.90;;;4.00;99.90;;;;;;5119448;27;20054;-81
2022/01/20 12:44:04;;;;;;;11.45;3.03;;;4.00;99.90;;;;;;5124935;27;20046;-79
2022/01/20 12:46:30;;;;;;;10.30;2.50;;;4.10;99.90;;;;;;5130241;27;20492;-81
2022/01/20 12:48:57;;;;;;;20.08;3.00;;;4.20;99.90;;;;;;5123466;27;20490;-81
2022/01/20 12:51:24;;;;;;;12.57;3.05;;;4.20;99.90;;;;;;5129815;27;20509;-81
2022/01/20 12:53:57;;;;;;;10.63;3.15;;;4.00;99.90;;;;;;5127097;27;20042;-80
2022/01/20 12:56:24;;;;;;;13.82;3.67;;;4.00;99.90;;;;;;5128998;27;20077;-81
2022/01/20 12:58:50;;;;;;;20.33;5.20;;;4.20;99.90;;;;;;5135748;27;20047;-81
2022/01/20 13:01:17;;;;;;;20.92;3.95;;;4.00;99.90;;;;;;5128033;27;20058;-81
2022/01/20 13:03:43;;;;;;;21.42;3.47;;;4.00;99.90;;;;;;5124463;27;20042;-81
2022/01/20 13:06:11;;;;;;;14.77;3.80;;;4.00;99.90;;;;;;5127708;27;20066;-85
2022/01/20 13:08:41;;;;;;;9.52;3.13;;;4.20;99.90;;;;;;5127321;27;20047;-86
2022/01/20 13:11:09;;;;;;;22.30;4.47;;;4.20;99.90;;;;;;5121523;27;20065;-89
2022/01/20 13:13:36;;;;;;;23.17;4.78;;;4.10;99.90;;;;;;5133149;27;20349;-91
2022/01/20 13:16:02;;;;;;;23.13;4.18;;;4.30;99.90;;;;;;5129778;27;20053;-94
2022/01/20 13:18:29;;;;;;;11.48;4.28;;;4.20;99.90;;;;;;5125654;27;20035;-93
2022/01/20 13:20:59;;;;;;;9.02;2.65;;;4.70;99.90;;;;;;5134566;27;20104;-91
2022/01/20 13:26:10;;;;;;;5.25;1.70;;;4.70;99.90;;;;;;5134577;27;20034;-81
2022/01/20 13:28:36;;;;;;;6.10;1.67;;;4.60;99.90;;;;;;5129213;27;20062;-80
2022/01/20 13:31:03;;;;;;;4.97;1.55;;;4.60;99.90;;;;;;5121496;27;20136;-80
2022/01/20 13:33:30;;;;;;;5.90;1.95;;;4.60;99.90;;;;;;5120780;27;20043;-82
2022/01/20 13:35:58;;;;;;;8.43;2.58;;;4.60;99.90;;;;;;5119825;27;20107;-80
2022/01/20 13:38:25;;;;;;;13.90;2.45;;;4.50;99.90;;;;;;5134235;27;20135;-80